createdAt,value
2023-02-22T00:00:19.478Z,5.95
2023-02-22T00:00:44.687Z,6.10
2023-02-22T00:01:02.107Z,6.25
2023-02-22T00:01:35.925Z,6.28
2023-02-22T00:01:51.346Z,7.20
2023-02-22T00:02:25.207Z,6.45
2023-02-22T00:02:38.146Z,5.53
2023-02-22T00:02:51.474Z,5.18
2023-02-22T00:03:04.407Z,5.50
2023-02-22T00:03:18.382Z,5.75
2023-02-22T00:03:32.586Z,5.57
2023-02-22T00:03:49.195Z,5.78
2023-02-22T00:04:06.302Z,5.65
2023-02-22T00:04:21.401Z,6.53
2023-02-22T00:04:35.635Z,6.45
2023-02-22T00:04:48.500Z,5.60
2023-02-22T00:05:01.569Z,5.53
2023-02-22T00:05:16.950Z,6.00
2023-02-22T00:05:31.600Z,6.07
2023-02-22T00:05:47.151Z,5.68
2023-02-22T00:06:05.106Z,5.62
2023-02-22T00:06:20.291Z,6.57
2023-02-22T00:06:33.223Z,6.57
2023-02-22T00:06:46.270Z,5.90
2023-02-22T00:07:01.330Z,5.47
2023-02-22T00:07:14.939Z,5.70
2023-02-22T00:07:27.749Z,7.10
2023-02-22T00:07:40.566Z,6.72
2023-02-22T00:07:53.447Z,6.93
2023-02-22T00:08:09.397Z,6.10
2023-02-22T00:08:23.954Z,5.57
2023-02-22T00:08:37.121Z,5.95
2023-02-22T00:08:52.951Z,6.45
2023-02-22T00:09:07.080Z,5.95
2023-02-22T00:09:21.531Z,6.53
2023-02-22T00:09:34.434Z,6.43
2023-02-22T00:09:47.574Z,5.57
2023-02-22T00:10:00.977Z,5.43
2023-02-22T00:10:14.929Z,5.43
2023-02-22T00:10:27.881Z,6.12
2023-02-22T00:10:40.772Z,5.93
2023-02-22T00:10:53.594Z,5.50
2023-02-22T00:11:08.870Z,6.12
2023-02-22T00:11:21.829Z,6.87
2023-02-22T00:11:35.573Z,7.18
2023-02-22T00:11:48.737Z,6.18
2023-02-22T00:12:01.644Z,6.30
2023-02-22T00:12:14.556Z,5.93
2023-02-22T00:12:29.298Z,5.78
2023-02-22T00:12:42.614Z,6.50
2023-02-22T00:12:55.649Z,7.15
2023-02-22T00:13:09.197Z,6.30
2023-02-22T00:13:22.882Z,5.75
2023-02-22T00:13:36.884Z,5.32
2023-02-22T00:13:50.662Z,5.43
2023-02-22T00:14:03.503Z,6.47
2023-02-22T00:14:20.408Z,7.65
2023-02-22T00:14:33.660Z,7.12
2023-02-22T00:14:46.484Z,5.82
2023-02-22T00:14:59.343Z,5.85
2023-02-22T00:15:14.287Z,5.37
2023-02-22T00:15:27.403Z,5.22
2023-02-22T00:15:44.305Z,5.57
2023-02-22T00:15:57.692Z,5.82
2023-02-22T00:16:17.713Z,5.90
2023-02-22T00:16:31.802Z,5.85
2023-02-22T00:16:44.768Z,5.57
2023-02-22T00:16:59.784Z,5.62
2023-02-22T00:17:13.553Z,5.70
2023-02-22T00:17:26.407Z,5.43
2023-02-22T00:17:39.308Z,5.05
2023-02-22T00:17:52.136Z,5.53
2023-02-22T00:18:05.409Z,6.05
2023-02-22T00:18:19.255Z,6.18
2023-02-22T00:18:32.104Z,5.95
2023-02-22T00:18:45.081Z,5.87
2023-02-22T00:18:58.064Z,6.32
2023-02-22T00:19:10.934Z,6.55
2023-02-22T00:19:23.762Z,6.30
2023-02-22T00:19:36.582Z,6.28
2023-02-22T00:19:49.694Z,5.90
2023-02-22T00:20:05.868Z,6.30
2023-02-22T00:20:19.464Z,6.03
2023-02-22T00:20:32.298Z,5.85
2023-02-22T00:20:45.843Z,6.40
2023-02-22T00:21:00.081Z,6.10
2023-02-22T00:21:13.501Z,5.72
2023-02-22T00:21:26.372Z,5.47
2023-02-22T00:21:39.279Z,6.47
2023-02-22T00:21:55.699Z,7.07
2023-02-22T00:22:08.542Z,6.53
2023-02-22T00:22:21.358Z,5.87
2023-02-22T00:22:34.615Z,5.75
2023-02-22T00:22:49.403Z,6.35
2023-02-22T00:23:02.214Z,6.55
2023-02-22T00:23:20.115Z,6.65
2023-02-22T00:23:32.960Z,6.65
2023-02-22T00:23:46.751Z,7.00
2023-02-22T00:23:59.581Z,7.43
2023-02-22T00:24:24.685Z,6.68
2023-02-22T00:24:37.575Z,6.97
2023-02-22T00:24:50.478Z,6.87
2023-02-22T00:25:03.365Z,6.20
2023-02-22T00:25:19.728Z,6.05
2023-02-22T00:25:32.620Z,6.12
2023-02-22T00:25:46.328Z,6.65
2023-02-22T00:25:59.697Z,6.82
2023-02-22T00:26:13.672Z,6.95
2023-02-22T00:26:26.709Z,6.90
2023-02-22T00:26:39.587Z,6.03
2023-02-22T00:26:55.597Z,6.07
2023-02-22T00:27:08.559Z,6.47
2023-02-22T00:27:21.366Z,6.75
2023-02-22T00:27:34.199Z,7.05
2023-02-22T00:27:48.161Z,7.32
2023-02-22T00:28:01.118Z,7.20
2023-02-22T00:28:15.324Z,7.25
2023-02-22T00:28:28.184Z,7.07
2023-02-22T00:28:42.550Z,7.42
2023-02-22T00:28:56.465Z,6.70
2023-02-22T00:29:09.360Z,6.03
2023-02-22T00:29:23.413Z,6.22
2023-02-22T00:29:36.499Z,6.50
2023-02-22T00:29:49.307Z,6.07
2023-02-22T00:30:03.614Z,5.72
2023-02-22T00:30:19.225Z,6.25
2023-02-22T00:30:32.390Z,6.97
2023-02-22T00:30:45.571Z,6.53
2023-02-22T00:30:59.944Z,5.82
2023-02-22T00:31:12.888Z,6.40
2023-02-22T00:31:25.732Z,6.93
2023-02-22T00:31:39.431Z,6.80
2023-02-22T00:31:52.553Z,6.25
2023-02-22T00:32:05.590Z,5.85
2023-02-22T00:32:18.536Z,6.45
2023-02-22T00:32:31.455Z,6.87
2023-02-22T00:32:44.596Z,6.32
2023-02-22T00:32:57.529Z,6.68
2023-02-22T00:33:13.830Z,7.00
2023-02-22T00:33:26.694Z,6.97
2023-02-22T00:33:39.771Z,6.50
2023-02-22T00:33:52.806Z,5.65
2023-02-22T00:34:05.665Z,6.78
2023-02-22T00:34:18.534Z,7.50
2023-02-22T00:34:31.376Z,6.60
2023-02-22T00:34:44.322Z,5.97
2023-02-22T00:34:57.155Z,6.68
2023-02-22T00:35:10.008Z,6.40
2023-02-22T00:35:25.057Z,6.20
2023-02-22T00:35:37.941Z,6.68
2023-02-22T00:35:50.971Z,6.47
2023-02-22T00:36:03.967Z,6.80
2023-02-22T00:36:16.821Z,7.10
2023-02-22T00:36:29.679Z,7.68
2023-02-22T00:36:47.279Z,7.07
2023-02-22T00:37:02.947Z,6.25
2023-02-22T00:37:15.785Z,6.10
2023-02-22T00:37:31.582Z,6.43
2023-02-22T00:37:47.039Z,6.97
2023-02-22T00:38:00.653Z,6.95
2023-02-22T00:38:17.324Z,6.47
2023-02-22T00:38:30.142Z,6.22
2023-02-22T00:38:42.978Z,6.95
2023-02-22T00:38:55.817Z,6.78
2023-02-22T00:39:09.502Z,6.65
2023-02-22T00:39:22.374Z,6.45
2023-02-22T00:39:35.213Z,5.70
2023-02-22T00:39:48.725Z,5.57
2023-02-22T00:40:01.656Z,5.97
2023-02-22T00:40:18.873Z,6.25
2023-02-22T00:40:33.595Z,5.72
2023-02-22T00:40:46.564Z,6.07
2023-02-22T00:40:59.425Z,6.25
2023-02-22T00:41:12.283Z,6.43
2023-02-22T00:41:25.160Z,6.55
2023-02-22T00:41:38.146Z,7.70
2023-02-22T00:41:51.061Z,7.65
2023-02-22T00:42:04.241Z,6.55
2023-02-22T00:42:17.750Z,5.87
2023-02-22T00:42:31.046Z,6.00
2023-02-22T00:42:44.213Z,6.82
2023-02-22T00:42:57.828Z,7.05
2023-02-22T00:43:11.078Z,6.72
2023-02-22T00:43:25.136Z,5.85
2023-02-22T00:43:37.965Z,5.78
2023-02-22T00:43:50.791Z,6.37
2023-02-22T00:44:03.675Z,7.57
2023-02-22T00:44:16.584Z,8.23
2023-02-22T00:44:29.465Z,7.20
2023-02-22T00:44:42.293Z,7.68
2023-02-22T00:44:55.174Z,7.50
2023-02-22T00:45:08.414Z,6.18
2023-02-22T00:45:22.692Z,5.57
2023-02-22T00:45:36.579Z,5.87
2023-02-22T00:45:49.548Z,6.00
2023-02-22T00:46:02.486Z,6.00
2023-02-22T00:46:15.405Z,5.93
2023-02-22T00:46:28.245Z,5.57
2023-02-22T00:46:41.119Z,5.28
2023-02-22T00:46:53.959Z,5.80
2023-02-22T00:47:06.882Z,5.80
2023-02-22T00:47:19.685Z,5.45
2023-02-22T00:47:32.593Z,6.07
2023-02-22T00:47:45.413Z,6.80
2023-02-22T00:47:58.607Z,6.75
2023-02-22T00:48:11.516Z,6.62
2023-02-22T00:48:24.386Z,7.07
2023-02-22T00:48:37.274Z,6.45
2023-02-22T00:48:50.141Z,6.30
2023-02-22T00:49:03.716Z,6.85
2023-02-22T00:49:16.874Z,6.43
2023-02-22T00:49:29.736Z,5.75
2023-02-22T00:49:42.581Z,6.65
2023-02-22T00:49:55.472Z,7.07
2023-02-22T00:50:10.144Z,6.85
2023-02-22T00:50:24.182Z,7.28
2023-02-22T00:50:37.323Z,7.07
2023-02-22T00:50:50.556Z,6.12
2023-02-22T00:51:03.411Z,5.95
2023-02-22T00:51:16.611Z,6.62
2023-02-22T00:51:29.593Z,5.87
2023-02-22T00:51:42.570Z,5.75
2023-02-22T00:51:55.406Z,5.85
2023-02-22T00:52:09.193Z,5.72
2023-02-22T00:52:22.026Z,6.15
2023-02-22T00:52:36.223Z,5.93
2023-02-22T00:52:49.144Z,6.68
2023-02-22T00:53:03.800Z,6.65
2023-02-22T00:53:16.704Z,6.32
2023-02-22T00:53:29.540Z,6.43
2023-02-22T00:53:42.402Z,6.28
2023-02-22T00:53:55.303Z,6.18
2023-02-22T00:54:08.295Z,6.32
2023-02-22T00:54:21.113Z,6.65
2023-02-22T00:54:33.971Z,6.93
2023-02-22T00:54:46.808Z,6.53
2023-02-22T00:55:00.149Z,5.80
2023-02-22T00:55:26.904Z,5.70
2023-02-22T00:55:40.016Z,6.65
2023-02-22T00:55:52.988Z,7.53
2023-02-22T00:56:06.361Z,7.35
2023-02-22T00:56:19.195Z,6.68
2023-02-22T00:56:34.226Z,6.72
2023-02-22T00:56:47.052Z,6.57
2023-02-22T00:56:59.999Z,6.57
2023-02-22T00:57:12.947Z,7.12
2023-02-22T00:57:25.805Z,7.45
2023-02-22T00:57:38.667Z,7.80
2023-02-22T00:57:51.592Z,7.85
2023-02-22T00:58:04.888Z,7.00
2023-02-22T00:58:18.686Z,5.85
2023-02-22T00:58:32.085Z,6.30
2023-02-22T00:58:44.922Z,7.30
2023-02-22T00:58:57.787Z,7.40
2023-02-22T00:59:10.617Z,6.47
2023-02-22T00:59:23.570Z,6.22
2023-02-22T00:59:36.749Z,6.30
2023-02-22T00:59:49.657Z,6.97
2023-02-22T01:00:11.975Z,7.07
2023-02-22T01:00:37.191Z,8.40
2023-02-22T01:00:50.347Z,7.30
2023-02-22T01:01:03.392Z,7.47
2023-02-22T01:01:16.684Z,6.32
2023-02-22T01:01:30.112Z,6.57
2023-02-22T01:01:43.209Z,6.00
2023-02-22T01:01:56.076Z,6.15
2023-02-22T01:02:09.577Z,6.97
2023-02-22T01:02:22.603Z,7.12
2023-02-22T01:02:35.554Z,6.40
2023-02-22T01:02:51.541Z,6.57
2023-02-22T01:03:08.276Z,6.53
2023-02-22T01:03:21.611Z,6.45
2023-02-22T01:03:35.360Z,5.93
2023-02-22T01:03:48.535Z,5.40
2023-02-22T01:04:01.572Z,5.55
2023-02-22T01:04:14.909Z,5.55
2023-02-22T01:04:27.897Z,6.50
2023-02-22T01:04:40.929Z,7.30
2023-02-22T01:04:53.785Z,6.43
2023-02-22T01:05:14.773Z,6.07
2023-02-22T01:05:28.910Z,6.53
2023-02-22T01:05:42.095Z,6.97
2023-02-22T01:05:55.142Z,7.22
2023-02-22T01:06:08.130Z,6.12
2023-02-22T01:06:21.001Z,6.55
2023-02-22T01:06:34.277Z,7.12
2023-02-22T01:06:47.101Z,7.15
2023-02-22T01:07:00.678Z,6.53
2023-02-22T01:07:14.358Z,5.93
2023-02-22T01:07:27.202Z,6.05
2023-02-22T01:07:40.718Z,6.47
2023-02-22T01:07:55.734Z,6.62
2023-02-22T01:08:09.788Z,5.47
2023-02-22T01:08:25.201Z,5.35
2023-02-22T01:08:38.042Z,6.10
2023-02-22T01:08:50.866Z,6.72
2023-02-22T01:09:03.898Z,6.82
2023-02-22T01:09:16.755Z,6.87
2023-02-22T01:09:29.638Z,6.18
2023-02-22T01:09:44.517Z,6.72
2023-02-22T01:09:57.723Z,7.32
2023-02-22T01:10:10.843Z,7.50
2023-02-22T01:10:25.042Z,6.97
2023-02-22T01:10:38.094Z,7.37
2023-02-22T01:10:52.649Z,7.60
2023-02-22T01:11:05.541Z,6.47
2023-02-22T01:11:18.594Z,6.47
2023-02-22T01:11:31.608Z,7.37
2023-02-22T01:11:45.389Z,7.12
2023-02-22T01:11:58.267Z,6.72
2023-02-22T01:12:11.182Z,6.55
2023-02-22T01:12:24.040Z,6.25
2023-02-22T01:12:37.153Z,6.78
2023-02-22T01:12:50.168Z,6.75
2023-02-22T01:13:08.723Z,6.53
2023-02-22T01:13:23.115Z,7.20
2023-02-22T01:13:36.042Z,6.65
2023-02-22T01:13:48.873Z,6.07
2023-02-22T01:14:01.794Z,6.20
2023-02-22T01:14:14.716Z,6.65
2023-02-22T01:14:27.938Z,6.10
2023-02-22T01:14:40.847Z,5.68
2023-02-22T01:14:57.005Z,5.57
2023-02-22T01:15:11.128Z,5.97
2023-02-22T01:15:25.141Z,5.90
2023-02-22T01:15:39.888Z,6.20
2023-02-22T01:15:52.766Z,7.50
2023-02-22T01:16:08.364Z,6.85
2023-02-22T01:16:21.398Z,5.78
2023-02-22T01:16:35.496Z,6.22
2023-02-22T01:16:48.419Z,6.68
2023-02-22T01:17:01.296Z,7.35
2023-02-22T01:17:14.268Z,8.32
2023-02-22T01:17:27.248Z,7.60
2023-02-22T01:17:40.260Z,6.45
2023-02-22T01:17:53.686Z,6.45
2023-02-22T01:18:06.571Z,6.18
2023-02-22T01:18:21.987Z,6.75
2023-02-22T01:18:35.975Z,7.03
2023-02-22T01:18:48.852Z,6.50
2023-02-22T01:19:01.822Z,6.50
2023-02-22T01:19:14.641Z,6.75
2023-02-22T01:19:27.536Z,7.05
2023-02-22T01:19:42.591Z,7.40
2023-02-22T01:19:55.583Z,7.93
2023-02-22T01:20:15.499Z,6.90
2023-02-22T01:20:29.157Z,6.40
2023-02-22T01:20:42.014Z,6.50
2023-02-22T01:20:54.866Z,6.57
2023-02-22T01:21:08.622Z,7.10
2023-02-22T01:21:21.474Z,6.72
2023-02-22T01:21:34.340Z,6.90
2023-02-22T01:21:47.349Z,6.85
2023-02-22T01:22:00.166Z,6.93
2023-02-22T01:22:15.489Z,6.32
2023-02-22T01:22:28.378Z,5.97
2023-02-22T01:22:42.265Z,6.12
2023-02-22T01:22:56.600Z,6.25
2023-02-22T01:23:10.675Z,6.37
2023-02-22T01:23:23.572Z,6.18
2023-02-22T01:23:36.484Z,6.30
2023-02-22T01:23:49.301Z,6.80
2023-02-22T01:24:02.161Z,6.75
2023-02-22T01:24:16.389Z,6.35
2023-02-22T01:24:29.233Z,7.50
2023-02-22T01:24:42.050Z,7.43
2023-02-22T01:24:55.279Z,6.55
2023-02-22T01:25:08.999Z,5.78
2023-02-22T01:25:24.100Z,6.78
2023-02-22T01:25:37.013Z,7.22
2023-02-22T01:25:49.909Z,7.35
2023-02-22T01:26:05.708Z,7.25
2023-02-22T01:26:18.554Z,7.28
2023-02-22T01:26:31.409Z,7.65
2023-02-22T01:26:45.502Z,7.68
2023-02-22T01:26:58.341Z,7.25
2023-02-22T01:27:11.625Z,7.03
2023-02-22T01:27:24.458Z,7.10
2023-02-22T01:27:38.524Z,7.12
2023-02-22T01:27:51.612Z,6.50
2023-02-22T01:28:05.580Z,6.50
2023-02-22T01:28:18.394Z,6.90
2023-02-22T01:28:34.149Z,7.12
2023-02-22T01:28:46.958Z,7.18
2023-02-22T01:28:59.791Z,6.80
2023-02-22T01:29:15.772Z,7.30
2023-02-22T01:29:28.676Z,6.87
2023-02-22T01:29:41.651Z,6.40
2023-02-22T01:29:54.526Z,6.62
2023-02-22T01:30:08.739Z,7.00
2023-02-22T01:30:33.181Z,6.72
2023-02-22T01:30:46.252Z,5.87
2023-02-22T01:30:59.400Z,6.75
2023-02-22T01:31:12.728Z,7.07
2023-02-22T01:31:25.755Z,7.10
2023-02-22T01:31:38.737Z,6.80
2023-02-22T01:31:55.874Z,7.12
2023-02-22T01:32:08.880Z,6.85
2023-02-22T01:32:21.877Z,6.55
2023-02-22T01:32:38.671Z,6.72
2023-02-22T01:32:51.715Z,6.47
2023-02-22T01:33:06.133Z,6.95
2023-02-22T01:33:19.057Z,6.87
2023-02-22T01:33:31.982Z,6.60
2023-02-22T01:33:44.922Z,6.72
2023-02-22T01:33:58.133Z,6.68
2023-02-22T01:34:11.395Z,6.37
2023-02-22T01:34:24.501Z,7.10
2023-02-22T01:34:37.389Z,7.05
2023-02-22T01:34:52.760Z,7.00
2023-02-22T01:35:08.598Z,6.47
2023-02-22T01:35:23.745Z,6.95
2023-02-22T01:35:38.567Z,6.87
2023-02-22T01:35:51.419Z,6.37
2023-02-22T01:36:04.391Z,7.20
2023-02-22T01:36:18.998Z,7.32
2023-02-22T01:36:31.822Z,6.60
2023-02-22T01:36:44.691Z,6.43
2023-02-22T01:36:58.555Z,6.15
2023-02-22T01:37:11.382Z,5.80
2023-02-22T01:37:24.212Z,5.80
2023-02-22T01:37:37.117Z,6.25
2023-02-22T01:37:50.003Z,6.20
2023-02-22T01:38:03.019Z,6.43
2023-02-22T01:38:15.868Z,7.57
2023-02-22T01:38:28.851Z,8.02
2023-02-22T01:38:41.685Z,7.80
2023-02-22T01:38:54.538Z,6.55
2023-02-22T01:39:07.444Z,6.75
2023-02-22T01:39:20.332Z,6.32
2023-02-22T01:39:33.473Z,6.90
2023-02-22T01:39:47.451Z,6.97
2023-02-22T01:40:00.480Z,6.93
2023-02-22T01:40:20.537Z,7.57
2023-02-22T01:40:35.078Z,7.15
2023-02-22T01:40:49.255Z,6.82
2023-02-22T01:41:02.115Z,6.28
2023-02-22T01:41:18.380Z,6.82
2023-02-22T01:41:31.455Z,7.07
2023-02-22T01:41:45.652Z,6.55
2023-02-22T01:41:58.478Z,6.85
2023-02-22T01:42:11.318Z,6.75
2023-02-22T01:42:24.296Z,6.50
2023-02-22T01:42:37.227Z,6.28
2023-02-22T01:42:55.122Z,6.18
2023-02-22T01:43:25.157Z,6.10
2023-02-22T01:43:38.183Z,5.85
2023-02-22T01:43:51.053Z,6.18
2023-02-22T01:44:34.161Z,6.45
2023-02-22T01:44:47.247Z,7.28
2023-02-22T01:45:30.908Z,6.87
2023-02-22T01:46:06.760Z,6.50
2023-02-22T01:46:26.713Z,6.07
2023-02-22T01:46:39.798Z,5.97
2023-02-22T01:46:52.864Z,6.43
2023-02-22T01:47:06.505Z,7.10
2023-02-22T01:47:19.417Z,6.18
2023-02-22T01:47:32.511Z,6.53
2023-02-22T01:47:45.332Z,6.82
2023-02-22T02:25:11.398Z,6.95
2023-02-22T02:25:51.461Z,6.10
2023-02-22T02:26:27.936Z,7.05
2023-02-22T02:28:05.600Z,6.87
2023-02-22T02:28:37.648Z,6.10
2023-02-22T02:29:02.542Z,6.18
2023-02-22T02:29:36.538Z,6.22
2023-02-22T02:30:13.550Z,7.10
2023-02-22T02:30:50.337Z,6.05
2023-02-22T02:31:16.401Z,5.72
2023-02-22T02:31:53.699Z,6.40
2023-02-22T02:32:43.568Z,6.53
2023-02-22T02:33:11.139Z,7.15
2023-02-22T02:34:05.564Z,7.12
2023-02-22T03:14:56.150Z,8.05
2023-02-22T03:15:32.645Z,6.75
2023-02-22T03:16:19.492Z,7.55
2023-02-22T03:16:38.815Z,7.00
2023-02-22T03:17:16.204Z,7.00
2023-02-22T03:17:41.610Z,6.30
2023-02-22T03:17:55.330Z,6.20
2023-02-22T03:18:10.760Z,6.25
2023-02-22T03:18:33.369Z,6.80
2023-02-22T03:18:59.386Z,7.68
2023-02-22T03:19:17.084Z,6.97
2023-02-22T03:19:39.599Z,6.55
2023-02-22T03:20:02.157Z,6.15
2023-02-22T03:20:20.460Z,6.53
2023-02-22T03:20:43.692Z,7.10
2023-02-22T03:21:43.594Z,6.80
2023-02-22T03:22:17.587Z,6.65
2023-02-22T03:22:37.657Z,7.60
2023-02-22T03:22:57.727Z,6.75
2023-02-22T03:23:50.455Z,6.87
2023-02-22T03:24:11.448Z,7.20
2023-02-22T03:24:32.899Z,7.62
2023-02-22T03:24:59.036Z,6.93
2023-02-22T03:25:18.215Z,6.50
2023-02-22T03:25:36.106Z,6.70
2023-02-22T03:25:52.209Z,6.78
2023-02-22T03:26:09.262Z,7.68
2023-02-22T03:26:31.875Z,7.00
2023-02-22T03:26:52.650Z,6.25
2023-02-22T03:27:21.514Z,8.13
2023-02-22T03:27:46.493Z,7.50
2023-02-22T03:28:03.095Z,7.45
2023-02-22T03:28:17.433Z,7.43
2023-02-22T03:28:30.378Z,6.60
2023-02-22T03:28:43.360Z,6.40
2023-02-22T03:28:56.228Z,5.97
2023-02-22T03:29:10.186Z,6.15
2023-02-22T03:29:24.011Z,6.72
2023-02-22T03:29:39.808Z,6.62
2023-02-22T03:29:54.139Z,6.10
2023-02-22T03:30:08.965Z,6.55
2023-02-22T03:30:24.285Z,7.15
2023-02-22T03:31:12.485Z,7.25
2023-02-22T03:31:29.916Z,6.40
2023-02-22T03:31:49.266Z,7.20
2023-02-22T03:32:03.787Z,7.28
2023-02-22T03:32:23.935Z,7.43
2023-02-22T03:33:01.813Z,6.78
2023-02-22T03:34:15.467Z,6.50
2023-02-22T03:34:32.365Z,6.50
2023-02-22T03:34:58.045Z,6.03
2023-02-22T03:35:13.262Z,6.47
2023-02-22T03:35:30.555Z,6.40
2023-02-22T03:35:48.339Z,7.45
2023-02-22T03:36:05.484Z,7.35
2023-02-22T03:36:25.112Z,7.20
2023-02-22T03:36:41.678Z,7.45
2023-02-22T03:37:16.064Z,6.97
2023-02-22T03:37:31.803Z,7.02
2023-02-22T03:37:46.690Z,7.60
2023-02-22T03:38:19.469Z,6.90
2023-02-22T03:39:16.262Z,7.53
2023-02-22T03:39:31.235Z,7.20
2023-02-22T03:39:44.911Z,7.53
2023-02-22T03:40:43.504Z,6.87
2023-02-22T03:40:59.834Z,6.50
2023-02-22T03:41:13.042Z,7.10
2023-02-22T03:41:27.364Z,7.37
2023-02-22T03:41:40.761Z,7.50
2023-02-22T03:41:53.640Z,7.10
2023-02-22T03:42:09.550Z,6.85
2023-02-22T03:42:25.268Z,7.43
2023-02-22T03:42:48.016Z,7.00
2023-02-22T03:43:04.963Z,7.53
2023-02-22T03:43:26.045Z,6.37
2023-02-22T03:43:42.575Z,7.18
2023-02-22T03:44:09.477Z,8.10
2023-02-22T03:44:24.674Z,7.43
2023-02-22T03:44:38.464Z,7.03
2023-02-22T03:44:52.095Z,6.35
2023-02-22T03:45:05.429Z,6.07
2023-02-22T03:45:18.404Z,6.60
2023-02-22T03:45:33.303Z,6.93
2023-02-22T03:45:46.946Z,7.30
2023-02-22T03:46:00.149Z,7.22
2023-02-22T03:46:19.303Z,7.25
2023-02-22T03:46:33.211Z,7.53
2023-02-22T03:46:49.143Z,7.62
2023-02-22T03:47:07.301Z,7.15
2023-02-22T03:47:30.202Z,7.35
2023-02-22T03:47:51.838Z,6.78
2023-02-22T03:48:23.304Z,7.12
2023-02-22T03:48:48.880Z,6.78
2023-02-22T03:49:24.684Z,7.00
2023-02-22T03:49:42.118Z,7.28
2023-02-22T03:50:00.450Z,7.80
2023-02-22T03:50:16.702Z,7.93
2023-02-22T03:50:30.001Z,7.05
2023-02-22T03:50:43.070Z,6.25
2023-02-22T03:50:58.393Z,7.28
2023-02-22T03:51:16.712Z,7.70
2023-02-22T03:51:29.938Z,7.18
2023-02-22T03:51:42.808Z,7.50
2023-02-22T03:51:56.383Z,7.70
2023-02-22T03:52:09.500Z,7.93
2023-02-22T03:52:23.708Z,6.90
2023-02-22T03:52:59.212Z,7.03
2023-02-22T03:53:20.477Z,7.93
2023-02-22T03:53:34.463Z,8.00
2023-02-22T03:53:50.762Z,7.80
2023-02-22T03:54:04.653Z,8.50
2023-02-22T03:54:17.907Z,8.60
2023-02-22T03:54:31.331Z,8.23
2023-02-22T03:54:44.761Z,7.43
2023-02-22T03:54:57.903Z,6.80
2023-02-22T03:55:11.874Z,6.70
2023-02-22T03:55:25.054Z,6.95
2023-02-22T03:55:38.047Z,6.62
2023-02-22T03:55:51.882Z,6.03
2023-02-22T03:56:07.475Z,7.07
2023-02-22T03:56:23.752Z,8.40
2023-02-22T03:56:40.077Z,8.10
2023-02-22T03:56:56.268Z,8.13
2023-02-22T03:57:12.698Z,7.72
2023-02-22T03:57:27.532Z,7.80
2023-02-22T03:57:54.026Z,8.30
2023-02-22T03:58:09.553Z,7.80
2023-02-22T03:58:23.036Z,7.43
2023-02-22T03:58:36.928Z,7.85
2023-02-22T03:58:50.933Z,8.07
2023-02-22T03:59:07.707Z,7.25
2023-02-22T03:59:26.319Z,6.65
2023-02-22T03:59:39.916Z,7.50
2023-02-22T03:59:52.814Z,9.23
2023-02-22T04:00:10.412Z,9.55
2023-02-22T04:00:25.416Z,7.30
2023-02-22T04:00:38.264Z,7.75
2023-02-22T04:00:53.291Z,7.80
2023-02-22T04:01:06.334Z,7.30
2023-02-22T04:01:23.850Z,7.28
2023-02-22T04:01:37.491Z,7.80
2023-02-22T04:01:51.297Z,8.00
2023-02-22T04:02:05.206Z,7.37
2023-02-22T04:02:38.033Z,6.50
2023-02-22T04:02:55.454Z,6.43
2023-02-22T04:03:08.486Z,7.03
2023-02-22T04:03:21.838Z,8.23
2023-02-22T04:03:34.749Z,8.95
2023-02-22T04:03:47.790Z,8.38
2023-02-22T04:04:00.840Z,7.20
2023-02-22T04:04:13.884Z,6.93
2023-02-22T04:04:26.999Z,7.22
2023-02-22T04:04:40.180Z,7.50
2023-02-22T04:04:53.459Z,7.50
2023-02-22T04:05:06.595Z,7.87
2023-02-22T04:05:19.805Z,7.62
2023-02-22T04:05:34.512Z,7.87
2023-02-22T04:05:51.500Z,8.15
2023-02-22T04:06:04.658Z,7.50
2023-02-22T04:06:18.623Z,6.82
2023-02-22T04:06:32.335Z,6.87
2023-02-22T04:06:49.742Z,7.18
2023-02-22T04:07:02.848Z,7.75
2023-02-22T04:07:16.006Z,7.72
2023-02-22T04:07:28.921Z,7.57
2023-02-22T04:07:42.260Z,8.15
2023-02-22T04:07:56.482Z,8.00
2023-02-22T04:08:17.309Z,7.22
2023-02-22T04:08:32.325Z,7.05
2023-02-22T04:08:45.653Z,6.37
2023-02-22T04:08:58.708Z,6.57
2023-02-22T04:09:11.935Z,7.30
2023-02-22T04:09:24.975Z,7.30
2023-02-22T04:09:39.908Z,6.97
2023-02-22T04:09:53.334Z,6.93
2023-02-22T04:10:08.859Z,6.35
2023-02-22T04:10:22.692Z,6.70
2023-02-22T04:10:37.998Z,7.93
2023-02-22T04:10:51.106Z,8.95
2023-02-22T04:11:26.213Z,6.75
2023-02-22T04:11:39.129Z,7.03
2023-02-22T04:11:52.073Z,7.18
2023-02-22T04:12:05.086Z,7.55
2023-02-22T04:12:20.398Z,7.68
2023-02-22T04:12:36.078Z,7.57
2023-02-22T04:12:50.718Z,7.65
2023-02-22T04:13:04.554Z,7.32
2023-02-22T04:13:17.425Z,6.97
2023-02-22T04:13:30.463Z,6.90
2023-02-22T04:13:43.749Z,6.60
2023-02-22T04:13:57.226Z,6.57
2023-02-22T04:14:10.626Z,6.62
2023-02-22T04:14:23.983Z,7.12
2023-02-22T04:14:41.020Z,7.43
2023-02-22T04:14:54.318Z,7.37
2023-02-22T04:15:08.086Z,7.53
2023-02-22T04:15:22.505Z,7.40
2023-02-22T04:15:35.447Z,7.25
2023-02-22T04:15:49.495Z,7.12
2023-02-22T04:16:02.501Z,6.47
2023-02-22T04:16:15.425Z,6.65
2023-02-22T04:16:28.502Z,7.12
2023-02-22T04:16:41.334Z,7.55
2023-02-22T04:16:54.340Z,7.97
2023-02-22T04:17:07.518Z,7.90
2023-02-22T04:17:22.274Z,7.82
2023-02-22T04:17:35.176Z,7.22
2023-02-22T04:17:49.099Z,7.05
2023-02-22T04:18:02.001Z,7.47
2023-02-22T04:18:15.287Z,7.47
2023-02-22T04:18:28.297Z,7.62
2023-02-22T04:18:42.330Z,7.18
2023-02-22T04:18:55.190Z,6.65
2023-02-22T04:19:11.803Z,6.82
2023-02-22T04:19:24.721Z,7.72
2023-02-22T04:19:38.635Z,7.80
2023-02-22T04:19:51.970Z,7.72
2023-02-22T04:20:06.809Z,7.35
2023-02-22T04:20:20.015Z,6.80
2023-02-22T04:20:34.893Z,7.40
2023-02-22T04:20:47.994Z,8.18
2023-02-22T04:21:00.970Z,7.97
2023-02-22T04:21:16.424Z,7.82
2023-02-22T04:21:29.442Z,7.47
2023-02-22T04:21:43.192Z,7.12
2023-02-22T04:21:57.941Z,7.78
2023-02-22T04:22:10.784Z,8.85
2023-02-22T04:22:24.656Z,8.55
2023-02-22T04:22:37.679Z,7.57
2023-02-22T04:22:50.535Z,7.80
2023-02-22T04:23:04.548Z,8.05
2023-02-22T04:23:17.861Z,7.37
2023-02-22T04:23:31.138Z,8.10
2023-02-22T04:23:44.059Z,8.02
2023-02-22T04:24:01.631Z,7.40
2023-02-22T04:24:16.387Z,8.27
2023-02-22T04:24:30.611Z,8.25
2023-02-22T04:24:43.974Z,7.60
2023-02-22T04:24:56.839Z,7.55
2023-02-22T04:25:10.108Z,7.80
2023-02-22T04:25:23.153Z,7.95
2023-02-22T04:25:36.037Z,7.97
2023-02-22T04:25:53.205Z,7.80
2023-02-22T04:26:06.911Z,7.45
2023-02-22T04:26:27.822Z,6.95
2023-02-22T04:26:41.740Z,7.93
2023-02-22T04:26:55.325Z,8.18
2023-02-22T04:27:08.359Z,7.37
2023-02-22T04:27:21.559Z,7.65
2023-02-22T04:27:34.736Z,6.62
2023-02-22T04:27:47.648Z,7.07
2023-02-22T04:28:00.494Z,7.65
2023-02-22T04:28:13.386Z,7.90
2023-02-22T04:28:26.169Z,7.90
2023-02-22T04:28:40.865Z,8.18
2023-02-22T04:28:53.771Z,8.10
2023-02-22T04:29:06.625Z,8.23
2023-02-22T04:29:19.458Z,8.15
2023-02-22T04:29:32.480Z,7.18
2023-02-22T04:29:45.369Z,6.87
2023-02-22T04:29:58.184Z,7.22
2023-02-22T04:30:11.501Z,7.95
2023-02-22T04:30:24.334Z,8.43
2023-02-22T04:30:37.223Z,8.43
2023-02-22T04:30:54.308Z,7.40
2023-02-22T04:31:07.466Z,7.45
2023-02-22T04:31:20.564Z,8.02
2023-02-22T04:31:33.838Z,7.87
2023-02-22T04:31:47.026Z,7.30
2023-02-22T04:31:59.957Z,6.72
2023-02-22T04:32:12.936Z,6.57
2023-02-22T04:32:25.874Z,7.30
2023-02-22T04:32:39.161Z,7.85
2023-02-22T04:32:52.046Z,7.93
2023-02-22T04:33:04.920Z,7.25
2023-02-22T04:33:17.992Z,7.28
2023-02-22T04:33:30.832Z,7.78
2023-02-22T04:33:43.781Z,8.13
2023-02-22T04:33:56.644Z,8.15
2023-02-22T04:34:09.892Z,8.30
2023-02-22T04:34:23.167Z,8.32
2023-02-22T04:34:36.045Z,7.97
2023-02-22T04:34:48.968Z,7.80
2023-02-22T04:35:01.858Z,8.13
2023-02-22T04:35:14.801Z,7.05
2023-02-22T04:35:27.859Z,6.37
2023-02-22T04:35:40.713Z,6.65
2023-02-22T04:35:53.777Z,7.65
2023-02-22T04:36:07.665Z,8.02
2023-02-22T04:36:21.704Z,7.35
2023-02-22T04:36:34.620Z,6.93
2023-02-22T04:36:47.537Z,7.10
2023-02-22T04:37:00.651Z,7.68
2023-02-22T04:37:13.535Z,7.78
2023-02-22T04:37:26.450Z,7.55
2023-02-22T04:37:39.356Z,7.78
2023-02-22T04:37:52.271Z,7.68
2023-02-22T04:38:05.405Z,7.75
2023-02-22T04:38:19.225Z,7.93
2023-02-22T04:38:32.481Z,7.07
2023-02-22T04:38:45.427Z,7.30
2023-02-22T04:38:59.162Z,8.95
2023-02-22T04:39:12.110Z,9.13
2023-02-22T04:39:29.603Z,7.75
2023-02-22T04:39:42.533Z,7.37
2023-02-22T04:39:57.693Z,7.80
2023-02-22T04:40:12.549Z,8.45
2023-02-22T04:40:25.383Z,8.40
2023-02-22T04:40:38.538Z,8.13
2023-02-22T04:40:51.648Z,7.70
2023-02-22T04:41:05.021Z,7.22
2023-02-22T04:41:18.961Z,6.85
2023-02-22T04:41:31.941Z,6.93
2023-02-22T04:41:47.528Z,7.53
2023-02-22T04:42:02.689Z,7.40
2023-02-22T04:42:15.979Z,8.23
2023-02-22T04:42:28.901Z,8.68
2023-02-22T04:42:41.804Z,7.97
2023-02-22T04:42:54.964Z,7.18
2023-02-22T04:43:07.858Z,7.00
2023-02-22T04:43:20.860Z,8.48
2023-02-22T04:43:34.114Z,8.60
2023-02-22T04:43:47.165Z,8.13
2023-02-22T04:44:00.179Z,7.90
2023-02-22T04:44:13.296Z,7.75
2023-02-22T04:44:26.157Z,7.40